createdAt,value
2017-08-26T00:04:36.272Z,20.90
2017-08-26T00:09:42.884Z,19.40
2017-08-26T00:12:13.294Z,18.93
2017-08-26T00:14:43.685Z,18.13
2017-08-26T00:17:14.439Z,18.70
2017-08-26T00:19:44.944Z,20.30
2017-08-26T00:22:15.428Z,21.90
2017-08-26T00:24:45.939Z,22.97
2017-08-26T00:27:16.526Z,20.20
2017-08-26T00:29:47.018Z,21.00
2017-08-26T00:32:17.591Z,21.37
2017-08-26T00:34:47.979Z,19.90
2017-08-26T00:37:18.484Z,20.30
2017-08-26T00:39:48.950Z,18.63
2017-08-26T00:42:19.343Z,21.27
2017-08-26T00:44:49.823Z,22.10
2017-08-26T00:47:20.414Z,23.10
2017-08-26T00:49:51.035Z,25.23
2017-08-26T00:52:21.644Z,25.47
2017-08-26T00:54:52.152Z,26.53
2017-08-26T00:57:22.606Z,28.70
2017-08-26T00:59:53.273Z,29.40
2017-08-26T01:02:23.716Z,28.50
2017-08-26T01:04:54.329Z,29.53
2017-08-26T01:07:29.875Z,26.53
2017-08-26T01:10:00.518Z,26.40
2017-08-26T01:12:31.151Z,26.70
2017-08-26T01:15:01.776Z,23.63
2017-08-26T01:17:32.174Z,21.80
2017-08-26T01:20:02.653Z,25.00
2017-08-26T01:22:33.119Z,23.80
2017-08-26T01:25:03.503Z,23.13
2017-08-26T01:27:34.336Z,25.77
2017-08-26T01:30:04.912Z,26.63
2017-08-26T01:32:35.458Z,28.03
2017-08-26T01:35:05.986Z,27.30
2017-08-26T01:37:36.570Z,26.37
2017-08-26T01:40:07.212Z,27.23
2017-08-26T01:42:37.669Z,24.47
2017-08-26T01:45:08.120Z,23.70
2017-08-26T01:47:38.643Z,25.10
2017-08-26T01:50:09.108Z,24.27
2017-08-26T01:52:39.534Z,26.70
2017-08-26T01:55:09.970Z,26.27
2017-08-26T01:57:40.588Z,23.40
2017-08-26T02:00:11.148Z,25.17
2017-08-26T02:02:41.770Z,23.70
2017-08-26T02:05:12.401Z,24.30
2017-08-26T02:07:42.938Z,24.93
2017-08-26T02:10:13.476Z,23.43
2017-08-26T02:12:43.899Z,23.40
2017-08-26T02:15:14.398Z,23.53
2017-08-26T02:17:44.819Z,26.63
2017-08-26T02:20:15.325Z,23.80
2017-08-26T02:22:45.808Z,24.97
2017-08-26T02:25:16.436Z,25.73
2017-08-26T02:27:47.012Z,29.20
2017-08-26T02:30:17.645Z,28.17
2017-08-26T02:32:48.077Z,27.90
2017-08-26T02:35:18.532Z,28.63
2017-08-26T02:37:49.896Z,29.23
2017-08-26T02:40:20.505Z,28.67
2017-08-26T02:42:57.109Z,29.83
2017-08-26T02:45:28.838Z,29.10
2017-08-26T02:47:59.412Z,27.53
2017-08-26T02:50:29.804Z,29.53
2017-08-26T02:53:00.274Z,31.30
2017-08-26T02:55:30.707Z,30.73
2017-08-26T02:58:01.012Z,28.10
2017-08-26T03:00:31.648Z,27.10
2017-08-26T03:03:02.130Z,26.50
2017-08-26T03:05:32.488Z,24.20
2017-08-26T03:08:02.860Z,27.57
2017-08-26T03:10:33.214Z,30.37
2017-08-26T03:13:03.764Z,28.10
2017-08-26T03:15:34.292Z,31.77
2017-08-26T03:18:04.929Z,27.77
2017-08-26T03:20:35.469Z,31.23
2017-08-26T03:23:06.550Z,32.23
2017-08-26T03:25:37.167Z,30.27
2017-08-26T03:28:07.910Z,31.63
2017-08-26T03:30:38.296Z,27.83
2017-08-26T03:33:09.302Z,28.27
2017-08-26T03:35:40.474Z,24.50
2017-08-26T03:38:10.959Z,27.10
2017-08-26T03:40:42.366Z,29.53
2017-08-26T03:43:13.030Z,34.07
2017-08-26T03:45:45.240Z,33.30
2017-08-26T03:48:16.173Z,32.17
2017-08-26T03:50:50.736Z,37.60
2017-08-26T03:53:21.581Z,34.30
2017-08-26T03:55:52.123Z,34.73
2017-08-26T03:58:22.690Z,36.27
2017-08-26T04:00:53.207Z,36.33
2017-08-26T04:03:23.614Z,39.83
2017-08-26T04:05:54.324Z,40.33
2017-08-26T04:08:24.874Z,35.57
2017-08-26T04:10:55.421Z,17.70
2017-08-26T04:13:26.066Z,11.73
2017-08-26T04:15:56.693Z,15.80
2017-08-26T04:18:27.320Z,17.97
2017-08-26T04:20:58.001Z,18.90
2017-08-26T04:23:28.598Z,24.70
2017-08-26T04:25:59.074Z,29.30
2017-08-26T04:28:30.203Z,27.17
2017-08-26T04:31:00.768Z,28.43
2017-08-26T04:33:32.031Z,24.43
2017-08-26T04:36:02.516Z,26.00
2017-08-26T04:38:33.115Z,31.50
2017-08-26T04:41:03.689Z,24.50
2017-08-26T04:43:34.358Z,21.50
2017-08-26T04:46:04.920Z,20.57
2017-08-26T04:48:36.695Z,20.93
2017-08-26T04:51:07.306Z,20.50
2017-08-26T04:53:37.738Z,21.23
2017-08-26T04:56:08.256Z,19.13
2017-08-26T04:58:38.699Z,23.23
2017-08-26T05:01:09.069Z,24.73
2017-08-26T05:03:39.540Z,27.67
2017-08-26T05:06:10.411Z,25.93
2017-08-26T05:08:40.956Z,25.83
2017-08-26T05:11:11.374Z,29.27
2017-08-26T05:13:41.779Z,31.27
2017-08-26T05:16:12.350Z,31.43
2017-08-26T05:18:42.812Z,29.97
2017-08-26T05:21:13.385Z,31.10
2017-08-26T05:23:44.002Z,30.67
2017-08-26T05:26:14.637Z,32.27
2017-08-26T05:28:45.516Z,33.83
2017-08-26T05:31:16.073Z,31.93
2017-08-26T05:33:46.573Z,32.37
2017-08-26T05:36:16.992Z,34.03
2017-08-26T05:38:47.451Z,33.27
2017-08-26T05:41:17.834Z,36.33
2017-08-26T05:43:48.422Z,40.03
2017-08-26T05:46:19.006Z,34.20
2017-08-26T05:48:49.375Z,33.67
2017-08-26T05:51:19.925Z,38.10
2017-08-26T05:53:50.657Z,36.90
2017-08-26T05:56:21.029Z,38.17
2017-08-26T05:58:51.600Z,37.07
2017-08-26T06:01:22.914Z,42.80
2017-08-26T06:03:53.343Z,43.60
2017-08-26T06:06:23.745Z,39.57
2017-08-26T06:08:54.195Z,38.00
2017-08-26T06:11:24.714Z,38.03
2017-08-26T06:13:55.247Z,39.50
2017-08-26T06:16:25.778Z,39.77
2017-08-26T06:18:56.274Z,38.23
2017-08-26T06:21:27.416Z,36.27
2017-08-26T06:23:58.680Z,36.80
2017-08-26T06:26:29.312Z,41.83
2017-08-26T06:29:00.127Z,39.37
2017-08-26T06:31:31.002Z,41.57
2017-08-26T06:34:01.491Z,41.77
2017-08-26T06:36:32.066Z,40.13
2017-08-26T06:39:02.690Z,39.87
2017-08-26T06:41:33.011Z,39.20
2017-08-26T06:44:03.505Z,36.20
2017-08-26T06:46:34.036Z,37.40
2017-08-26T06:49:04.416Z,35.93
2017-08-26T06:51:34.938Z,37.50
2017-08-26T06:54:05.427Z,34.37
2017-08-26T06:56:36.016Z,36.53
2017-08-26T06:59:06.628Z,34.23
2017-08-26T07:01:37.264Z,35.57
2017-08-26T07:04:07.896Z,33.40
2017-08-26T07:06:38.446Z,37.47
2017-08-26T07:09:08.899Z,40.27
2017-08-26T07:11:39.268Z,39.00
2017-08-26T07:14:09.800Z,38.93
2017-08-26T07:16:40.227Z,37.10
2017-08-26T07:19:10.681Z,42.50
2017-08-26T07:21:41.188Z,42.77
2017-08-26T07:24:13.263Z,41.70
2017-08-26T07:26:43.740Z,43.40
2017-08-26T07:29:14.511Z,42.73
2017-08-26T07:31:45.032Z,40.53
2017-08-26T07:34:15.566Z,43.43
2017-08-26T07:36:46.198Z,41.60
2017-08-26T07:39:16.843Z,39.77
2017-08-26T07:41:47.343Z,41.80
2017-08-26T07:44:17.911Z,39.93
2017-08-26T07:46:48.380Z,40.87
2017-08-26T07:49:18.962Z,45.27
2017-08-26T07:51:49.574Z,41.73
2017-08-26T07:54:20.153Z,39.97
2017-08-26T07:56:50.780Z,40.07
2017-08-26T07:59:21.411Z,41.33
2017-08-26T08:01:51.995Z,43.70
2017-08-26T08:04:22.411Z,41.50
2017-08-26T08:06:52.880Z,40.10
2017-08-26T08:09:24.264Z,37.40
2017-08-26T08:11:54.693Z,37.50
2017-08-26T08:14:25.232Z,40.27
2017-08-26T08:16:55.792Z,37.97
2017-08-26T08:19:26.196Z,40.50
2017-08-26T08:21:56.612Z,45.13
2017-08-26T08:24:27.141Z,42.37
2017-08-26T08:26:57.609Z,44.47
2017-08-26T08:29:28.563Z,39.37
2017-08-26T08:31:59.045Z,40.40
2017-08-26T08:34:29.653Z,39.37
2017-08-26T08:37:00.356Z,37.17
2017-08-26T08:39:30.903Z,32.90
2017-08-26T08:42:01.488Z,31.70
2017-08-26T08:44:31.996Z,34.40
2017-08-26T08:47:02.368Z,33.23
2017-08-26T08:49:32.874Z,34.33
2017-08-26T08:52:03.368Z,33.50
2017-08-26T08:54:33.915Z,31.90
2017-08-26T08:57:04.164Z,34.50
2017-08-26T08:59:34.748Z,35.70
2017-08-26T09:02:05.373Z,31.30
2017-08-26T09:04:35.881Z,30.27
2017-08-26T09:07:06.486Z,28.43
2017-08-26T09:09:36.949Z,27.53
2017-08-26T09:12:07.635Z,27.10
2017-08-26T09:14:38.080Z,28.70
2017-08-26T09:17:08.488Z,26.13
2017-08-26T09:19:39.047Z,25.63
2017-08-26T09:22:09.656Z,26.60
2017-08-26T09:24:40.190Z,26.83
2017-08-26T09:27:10.633Z,26.70
2017-08-26T09:29:41.547Z,24.27
2017-08-26T09:32:12.049Z,23.40
2017-08-26T09:34:42.613Z,22.50
2017-08-26T09:37:14.356Z,22.83
2017-08-26T09:39:44.879Z,21.30
2017-08-26T09:42:15.537Z,24.40
2017-08-26T09:44:46.550Z,24.53
2017-08-26T09:47:17.201Z,21.70
2017-08-26T09:49:47.736Z,24.00
2017-08-26T09:52:18.343Z,22.50
2017-08-26T09:54:48.999Z,23.77
2017-08-26T09:57:19.494Z,23.33
2017-08-26T09:59:50.057Z,23.17
2017-08-26T10:02:20.591Z,22.03
2017-08-26T10:04:51.240Z,27.13
2017-08-26T10:07:21.722Z,29.70
2017-08-26T10:09:52.123Z,36.17
2017-08-26T10:12:22.596Z,22.57
2017-08-26T10:14:53.145Z,12.43
2017-08-26T10:17:23.631Z,11.77
2017-08-26T10:19:54.170Z,9.50
2017-08-26T10:22:24.787Z,7.20
2017-08-26T10:24:55.290Z,9.80
2017-08-26T10:27:25.916Z,8.27
2017-08-26T10:29:56.901Z,11.67
2017-08-26T10:32:27.662Z,8.60
2017-08-26T10:34:58.934Z,7.80
2017-08-26T10:37:29.791Z,8.80
2017-08-26T10:40:00.492Z,8.03
2017-08-26T10:42:31.372Z,7.50
2017-08-26T10:45:02.148Z,7.63
2017-08-26T10:47:32.887Z,6.80
2017-08-26T10:50:03.699Z,7.30
2017-08-26T10:52:35.292Z,8.63
2017-08-26T10:55:05.759Z,8.83
2017-08-26T10:57:36.211Z,9.43
2017-08-26T11:00:06.911Z,8.53
2017-08-26T11:02:37.544Z,10.00
2017-08-26T11:05:08.225Z,8.47
2017-08-26T11:07:38.729Z,8.97
2017-08-26T11:10:09.448Z,9.10
2017-08-26T11:12:39.896Z,9.00
2017-08-26T11:15:10.451Z,9.40
2017-08-26T11:17:41.004Z,8.73
2017-08-26T11:20:11.654Z,10.00
2017-08-26T11:22:42.238Z,10.40
2017-08-26T11:25:12.805Z,9.70
2017-08-26T11:27:43.473Z,9.03
2017-08-26T11:30:14.508Z,9.80
2017-08-26T11:32:45.344Z,11.47
2017-08-26T11:35:15.973Z,10.80
2017-08-26T11:37:47.281Z,10.70
2017-08-26T11:40:17.790Z,10.60
2017-08-26T11:42:48.551Z,11.33
2017-08-26T11:45:19.292Z,11.10
2017-08-26T11:47:49.922Z,14.43
2017-08-26T11:50:20.627Z,13.17
2017-08-26T11:52:51.242Z,15.00
2017-08-26T11:55:21.706Z,15.20
2017-08-26T11:57:52.094Z,17.17
2017-08-26T12:00:23.276Z,15.80
2017-08-26T12:02:54.470Z,14.73
2017-08-26T12:05:25.558Z,23.90
2017-08-26T12:07:56.290Z,17.07
2017-08-26T12:10:27.115Z,17.50
2017-08-26T12:12:57.623Z,12.90
2017-08-26T12:15:28.838Z,11.50
2017-08-26T12:17:58.981Z,9.77
2017-08-26T12:20:29.562Z,10.67
2017-08-26T12:23:00.540Z,8.77
2017-08-26T12:25:31.874Z,8.90
2017-08-26T12:28:02.261Z,8.63
2017-08-26T12:30:33.364Z,9.07
2017-08-26T12:33:03.604Z,8.30
2017-08-26T12:35:34.837Z,9.23
2017-08-26T12:38:05.343Z,8.13
2017-08-26T12:40:35.950Z,8.43
2017-08-26T12:43:06.565Z,9.53
2017-08-26T12:45:37.095Z,9.17
2017-08-26T12:48:07.550Z,10.00
2017-08-26T12:50:38.013Z,10.77
2017-08-26T12:53:08.386Z,9.50
2017-08-26T12:55:38.888Z,8.73
2017-08-26T12:58:09.383Z,9.93
2017-08-26T13:00:39.986Z,9.97
2017-08-26T13:03:10.614Z,9.30
2017-08-26T13:05:41.042Z,8.23
2017-08-26T13:08:11.455Z,10.33
2017-08-26T13:10:41.932Z,11.00
2017-08-26T13:13:12.402Z,10.23
2017-08-26T13:15:43.024Z,9.87
2017-08-26T13:18:13.645Z,9.50
2017-08-26T13:20:44.301Z,9.10
2017-08-26T13:23:14.880Z,9.07
2017-08-26T13:25:45.480Z,9.93
2017-08-26T13:28:16.050Z,9.10
2017-08-26T13:30:47.051Z,10.20
2017-08-26T13:33:17.644Z,10.87
2017-08-26T13:35:48.116Z,10.67
2017-08-26T13:38:18.771Z,9.87
2017-08-26T13:40:49.393Z,10.03
2017-08-26T13:43:20.029Z,10.00
2017-08-26T13:45:50.665Z,9.70
2017-08-26T13:48:21.290Z,10.07
2017-08-26T13:50:51.944Z,9.83
2017-08-26T13:53:22.563Z,11.20
2017-08-26T13:55:53.098Z,10.20
2017-08-26T13:58:25.436Z,10.37
2017-08-26T14:00:56.036Z,10.13
2017-08-26T14:03:26.640Z,9.70
2017-08-26T14:05:57.283Z,10.37
2017-08-26T14:08:27.848Z,10.40
2017-08-26T14:10:58.435Z,9.20
2017-08-26T14:13:29.035Z,11.03
2017-08-26T14:16:00.334Z,10.40
2017-08-26T14:18:31.031Z,11.37
2017-08-26T14:21:01.583Z,10.70
2017-08-26T14:23:32.076Z,12.33
2017-08-26T14:26:02.753Z,11.67
2017-08-26T14:28:33.353Z,15.57
2017-08-26T14:31:04.943Z,15.03
2017-08-26T14:33:35.261Z,16.57
2017-08-26T14:36:05.736Z,18.23
2017-08-26T14:38:36.157Z,18.97
2017-08-26T14:41:06.751Z,17.97
2017-08-26T14:43:37.188Z,18.83
2017-08-26T14:46:07.780Z,23.83
2017-08-26T14:48:38.270Z,23.13
2017-08-26T14:51:08.872Z,24.57
2017-08-26T14:53:40.260Z,27.30
2017-08-26T14:56:10.739Z,27.20
2017-08-26T14:58:41.210Z,27.60
2017-08-26T15:01:11.955Z,26.27
2017-08-26T15:03:42.512Z,24.77
2017-08-26T15:06:13.115Z,22.30
2017-08-26T15:08:43.710Z,22.80
2017-08-26T15:11:14.351Z,22.17
2017-08-26T15:13:45.000Z,20.67
2017-08-26T15:16:15.418Z,20.60
2017-08-26T15:18:45.621Z,21.13
2017-08-26T15:21:15.875Z,19.17
2017-08-26T15:23:46.350Z,17.10
2017-08-26T15:26:16.614Z,18.20
2017-08-26T15:28:46.956Z,15.70
2017-08-26T15:31:17.541Z,13.77
2017-08-26T15:33:48.208Z,14.30
2017-08-26T15:36:18.728Z,15.07
2017-08-26T15:38:49.271Z,15.87
2017-08-26T15:41:19.817Z,15.63
2017-08-26T15:43:50.242Z,14.80
2017-08-26T15:46:20.733Z,14.00
2017-08-26T15:48:51.445Z,15.33
2017-08-26T15:51:21.966Z,14.90
2017-08-26T15:53:52.483Z,13.97
2017-08-26T15:56:22.978Z,13.80
2017-08-26T15:58:53.920Z,13.13
2017-08-26T16:01:24.557Z,14.83
2017-08-26T16:03:55.124Z,14.30
2017-08-26T16:06:25.622Z,14.70
2017-08-26T16:08:58.496Z,13.53
2017-08-26T16:11:29.050Z,13.70
2017-08-26T16:13:59.532Z,13.40
2017-08-26T16:16:31.683Z,14.70
2017-08-26T16:19:02.298Z,14.20
2017-08-26T16:21:32.902Z,14.30
2017-08-26T16:24:24.302Z,15.43
2017-08-26T16:27:10.919Z,14.50
2017-08-26T16:32:20.277Z,12.87
2017-08-26T16:37:38.234Z,14.33
2017-08-26T16:40:10.018Z,14.17
2017-08-26T16:42:40.446Z,14.77
2017-08-26T16:45:10.915Z,14.73
2017-08-26T16:47:43.738Z,17.27
2017-08-26T16:50:14.227Z,15.63
2017-08-26T16:52:44.477Z,15.10
2017-08-26T16:55:14.982Z,17.50
2017-08-26T16:57:45.437Z,16.50
2017-08-26T17:00:16.047Z,13.40
2017-08-26T17:02:46.589Z,16.00
2017-08-26T17:05:17.197Z,14.43
2017-08-26T17:07:47.733Z,13.17
2017-08-26T17:10:18.322Z,14.00
2017-08-26T17:12:48.905Z,14.20
2017-08-26T17:15:19.267Z,14.57
2017-08-26T17:17:49.915Z,14.07
2017-08-26T17:20:20.413Z,13.90
2017-08-26T17:22:51.024Z,14.27
2017-08-26T17:25:21.594Z,13.90
2017-08-26T17:27:52.447Z,12.90
2017-08-26T17:30:23.082Z,12.43
2017-08-26T17:32:54.004Z,13.40
2017-08-26T17:35:24.610Z,12.90
2017-08-26T17:37:55.161Z,12.20
2017-08-26T17:40:26.373Z,13.20
2017-08-26T17:42:56.880Z,11.50
2017-08-26T17:45:27.354Z,10.90
2017-08-26T17:47:57.864Z,10.80
2017-08-26T17:50:33.423Z,11.43
2017-08-26T17:53:03.706Z,11.60
2017-08-26T17:55:34.320Z,11.23
2017-08-26T17:58:04.967Z,10.60
2017-08-26T18:00:35.595Z,11.07
2017-08-26T18:03:06.252Z,10.97
2017-08-26T18:05:36.980Z,11.80
2017-08-26T18:08:07.588Z,11.57
2017-08-26T18:10:38.194Z,13.20
2017-08-26T18:13:08.806Z,12.70
2017-08-26T18:15:39.331Z,10.63
2017-08-26T18:18:09.739Z,12.37
2017-08-26T18:20:40.230Z,10.40
2017-08-26T18:23:11.452Z,9.93
2017-08-26T18:25:41.890Z,11.20
2017-08-26T18:28:12.315Z,10.80
2017-08-26T18:30:42.657Z,11.07
2017-08-26T18:33:14.351Z,11.20
2017-08-26T18:35:44.964Z,11.80
2017-08-26T18:38:15.597Z,13.00
2017-08-26T18:40:46.202Z,12.90
2017-08-26T18:43:16.818Z,13.07
2017-08-26T18:45:47.198Z,13.40
2017-08-26T18:48:17.725Z,13.87
2017-08-26T18:50:48.170Z,14.10
2017-08-26T18:53:18.615Z,13.57
2017-08-26T18:55:49.054Z,13.27
2017-08-26T18:58:19.477Z,14.10
2017-08-26T19:00:49.891Z,12.80
2017-08-26T19:03:23.023Z,12.00
2017-08-26T19:05:53.652Z,12.00
2017-08-26T19:08:24.197Z,11.73
2017-08-26T19:10:55.374Z,12.67
2017-08-26T19:13:26.000Z,11.20
2017-08-26T19:15:56.452Z,11.40
2017-08-26T19:18:27.044Z,11.20
2017-08-26T19:20:57.637Z,12.47
2017-08-26T19:23:28.166Z,11.60
2017-08-26T19:25:58.763Z,11.83
2017-08-26T19:28:29.356Z,11.50
2017-08-26T19:30:59.933Z,11.20
2017-08-26T19:33:30.774Z,11.67
2017-08-26T19:36:01.363Z,12.27
2017-08-26T19:38:32.635Z,12.50
2017-08-26T19:41:03.899Z,11.67
2017-08-26T19:43:34.524Z,13.30
2017-08-26T19:46:04.887Z,13.43
2017-08-26T19:48:35.406Z,15.10
2017-08-26T19:51:05.903Z,15.00
2017-08-26T19:53:37.014Z,14.93
2017-08-26T19:56:07.369Z,13.77
2017-08-26T19:58:37.911Z,14.47
2017-08-26T20:01:08.516Z,14.20
2017-08-26T20:03:39.059Z,13.00
2017-08-26T20:06:10.296Z,12.77
2017-08-26T20:08:41.677Z,11.87
2017-08-26T20:11:12.304Z,10.40
2017-08-26T20:13:42.946Z,11.10
2017-08-26T20:16:13.515Z,10.47
2017-08-26T20:18:43.967Z,11.67
2017-08-26T20:21:14.436Z,12.27
2017-08-26T20:23:44.969Z,13.00
2017-08-26T20:26:15.398Z,12.17
2017-08-26T20:28:45.964Z,12.30
2017-08-26T20:31:16.562Z,12.43
2017-08-26T20:33:47.569Z,12.80
2017-08-26T20:36:18.119Z,14.00
2017-08-26T20:38:48.897Z,13.10
2017-08-26T20:41:19.484Z,14.03
2017-08-26T20:43:50.234Z,13.23
2017-08-26T20:46:20.825Z,13.10
2017-08-26T20:48:51.384Z,13.13
2017-08-26T20:51:21.698Z,12.27
2017-08-26T20:53:52.091Z,12.43
2017-08-26T20:56:22.655Z,12.00
2017-08-26T20:58:54.294Z,12.17
2017-08-26T21:01:24.946Z,10.90
2017-08-26T21:03:55.519Z,10.97
2017-08-26T21:06:26.228Z,10.50
2017-08-26T21:08:57.488Z,9.97
2017-08-26T21:11:27.926Z,8.80
2017-08-26T21:13:58.468Z,9.07
2017-08-26T21:16:28.946Z,9.80
2017-08-26T21:18:59.482Z,10.00
2017-08-26T21:21:30.709Z,10.10
2017-08-26T21:24:01.107Z,10.07
2017-08-26T21:26:31.522Z,10.00
2017-08-26T21:29:01.916Z,9.70
2017-08-26T21:31:32.390Z,8.57
2017-08-26T21:34:03.194Z,9.27
2017-08-26T21:36:33.724Z,10.07
2017-08-26T21:39:04.351Z,10.00
2017-08-26T21:41:34.866Z,9.10
2017-08-26T21:44:05.335Z,9.20
2017-08-26T21:46:35.908Z,11.23
2017-08-26T21:49:06.368Z,13.10
2017-08-26T21:51:36.966Z,14.40
2017-08-26T21:54:07.544Z,14.00
2017-08-26T21:56:37.999Z,14.50
2017-08-26T21:59:08.524Z,14.00
2017-08-26T22:01:39.010Z,13.77
2017-08-26T22:04:09.682Z,14.83
2017-08-26T22:06:40.128Z,15.03
2017-08-26T22:09:10.679Z,14.70
2017-08-26T22:11:41.191Z,14.13
2017-08-26T22:14:11.874Z,16.53
2017-08-26T22:16:42.470Z,15.97
2017-08-26T22:19:12.978Z,14.67
2017-08-26T22:21:43.548Z,14.63
2017-08-26T22:24:13.906Z,14.50
2017-08-26T22:26:44.560Z,13.63
2017-08-26T22:29:15.000Z,15.70
2017-08-26T22:31:45.498Z,15.20
2017-08-26T22:34:16.046Z,14.93
2017-08-26T22:36:46.533Z,14.37
2017-08-26T22:39:17.048Z,15.60
2017-08-26T22:41:47.595Z,15.07
2017-08-26T22:44:17.992Z,13.27
2017-08-26T22:46:48.461Z,13.93
2017-08-26T22:49:18.925Z,13.67
2017-08-26T22:51:49.454Z,15.67
2017-08-26T22:54:19.879Z,15.87
2017-08-26T22:56:50.358Z,15.50
2017-08-26T22:59:20.926Z,14.93
2017-08-26T23:01:51.539Z,15.57
2017-08-26T23:04:22.106Z,12.87
2017-08-26T23:06:52.691Z,12.23
2017-08-26T23:09:23.146Z,13.40
2017-08-26T23:11:53.542Z,13.60
2017-08-26T23:14:24.492Z,12.57
2017-08-26T23:16:54.870Z,11.53
2017-08-26T23:19:25.263Z,12.77
2017-08-26T23:21:55.591Z,11.60
2017-08-26T23:24:25.925Z,11.70
2017-08-26T23:26:56.551Z,12.07
2017-08-26T23:29:27.054Z,10.90
2017-08-26T23:31:57.498Z,11.90
2017-08-26T23:34:28.513Z,13.07
2017-08-26T23:36:59.116Z,14.23
2017-08-26T23:39:29.727Z,13.63
2017-08-26T23:42:00.394Z,11.83
2017-08-26T23:44:31.056Z,11.53
2017-08-26T23:47:01.593Z,10.50
2017-08-26T23:49:32.078Z,10.90
2017-08-26T23:52:02.606Z,11.00
2017-08-26T23:54:33.212Z,10.87
2017-08-26T23:57:03.668Z,11.00
2017-08-26T23:59:35.024Z,11.30
